createdAt,value
2022-08-07T00:02:59.867Z,58
2022-08-07T00:42:05.529Z,58
2022-08-07T01:01:49.396Z,58
2022-08-07T01:22:29.630Z,58
2022-08-07T01:42:55.122Z,58
2022-08-07T02:03:19.529Z,59
2022-08-07T02:22:10.897Z,60
2022-08-07T02:41:55.170Z,60
2022-08-07T03:01:55.556Z,60
2022-08-07T03:22:19.348Z,59
2022-08-07T03:41:53.374Z,58
2022-08-07T04:42:07.839Z,59
2022-08-07T05:01:51.443Z,59
2022-08-07T05:22:01.600Z,58
2022-08-07T05:42:36.883Z,59
2022-08-07T06:01:49.681Z,59
2022-08-07T06:24:46.168Z,59
2022-08-07T06:42:03.364Z,58
2022-08-07T07:02:54.682Z,58
2022-08-07T07:22:37.091Z,58
2022-08-07T07:42:19.857Z,58
2022-08-07T08:02:35.575Z,58
2022-08-07T08:22:58.017Z,60
2022-08-07T08:41:58.897Z,62
2022-08-07T09:42:25.002Z,62
2022-08-07T10:01:54.788Z,62
2022-08-07T11:02:35.260Z,65
2022-08-07T12:02:01.433Z,63
2022-08-07T12:22:47.423Z,63
2022-08-07T12:42:02.770Z,62
2022-08-07T13:02:10.279Z,62
2022-08-07T13:22:55.180Z,62
2022-08-07T14:02:39.709Z,62
2022-08-07T14:22:49.979Z,62
2022-08-07T14:42:22.727Z,62
2022-08-07T15:01:51.615Z,62
2022-08-07T15:42:56.718Z,61
2022-08-07T16:02:15.572Z,61
2022-08-07T16:22:10.665Z,61
2022-08-07T16:42:36.830Z,61
2022-08-07T17:02:11.332Z,61
2022-08-07T17:22:36.929Z,62
2022-08-07T17:42:06.509Z,62
2022-08-07T18:02:27.505Z,62
2022-08-07T18:24:07.626Z,62
2022-08-07T18:42:29.643Z,62
2022-08-07T19:02:36.692Z,62
2022-08-07T19:22:05.059Z,63
2022-08-07T19:42:25.395Z,63
2022-08-07T20:01:58.018Z,63
2022-08-07T20:22:34.903Z,63
2022-08-07T20:41:53.679Z,64
2022-08-07T21:02:40.288Z,64
2022-08-07T21:21:57.802Z,64
2022-08-07T21:42:02.610Z,63
2022-08-07T22:02:13.649Z,64
2022-08-07T22:22:28.611Z,64
2022-08-07T22:42:33.861Z,64
2022-08-07T23:22:06.847Z,64
2022-08-07T23:42:34.296Z,64
